Aérodrome :







RETROUVEZ-NOUS SUR...

 
LOGIN :

S'inscrire | Disclaimer

   EN    FR    IT 

 









Légende :    VFR   VFR Marginal   IFR   IFR Intensif   IFR Très Intensif
Visi : 
Plafond : 
>= 8 km
>= 3000ft
5 à 8 km
1000 à 3000 ft
1500m à 5 km
500 à 1000 ft
800 à 1500m
200 à 500 ft
< 800m
< 200 ft
Symboles :   Orages  Brouillard  Fortes neiges  Fortes précipitations  Vent > 20 kt






- Altitude de l'aérodrome : 23 ft
- Code IATA : STT


TIST - King

DERNIER METAR :
  • 180153Z AUTO 08008KT 10SM CLR 25/19 A3012 RMK AO2 SLP198 T02500194

METARs EXPIRÉS :
  • 180053Z 05006KT 10SM CLR 26/20 A3010 RMK AO2 SLP194 T02560200
  • 172353Z 05008KT 10SM FEW030 26/20 A3009 RMK AO2 SLP189 T02610200 10289 20256 53016

TAF TIST
Valide du 18 à 00h jusqu'au 19 à 00h UTC


172340Z 1800/1824 05012G23KT P6SM FEW026 FEW040
FM181300 05019G31KT P6SM VCSH SCT026 SCT040



MET'MAP, la Météo Aéronautique d'un coup d'oeil ! - Copyright ORBIFLY Décembre 2007 - Disclaimer

ORBIFLY MET'MAP TEAM :

Programmation & Développement : Alexandra Zaïnal
Sur une idée originale de : Baudouin d'Aumeries
Assistance à la programmation : Marc-Olivier Méhu
Soutien technique & logistique : Manuel Goepfert

Contact : metmap@orbifly.com




SOURCES & CREDITS :

   NOAA